Weather at Maryfield Aerodrome

Public forecast

Using degrees Celsius for public forecast. Weather courtesy of forecast.io.

Closest aviation weather report (METAR) to Maryfield Aerodrome

Closest report is Brandon Municipal Airport, 60.6 nm (112.2 km) E. Retrieved 2020/09/20 10:00 UTC (16 minutes ago):

CYBR 201000Z 08010KT 15SM FEW250 11/10 A2978 RMK CI1 SLP091 DENSITY ALT 1400FT

Closest aviation forecast (TAF) to Maryfield Aerodrome

Closest forecast is Brandon Municipal Airport, 60.6 nm (112.2 km) E. Retrieved 2020/09/20 06:42 UTC (4 hours ago):

TAF CYBR 200538Z 2006/2018 10008KT P6SM FEW250 FM201000 10008KT P6SM FEW020 SCT180 FM201600 16012KT P6SM BKN150 RMK NXT FCST BY 201200Z